Date,TemperatureHighF,TemperatureAvgF,TemperatureLowF,DewpointHighF,DewpointAvgF,DewpointLowF,HumidityHigh,HumidityAvg,HumidityLow,PressureMaxIn,PressureMinIn,WindSpeedMaxMPH,WindSpeedAvgMPH,GustSpeedMaxMPH,PrecipitationSumIn
2013-1-1,53.3,40.7,28.8,31.3,28.5,21.7,92,66,31,30.32,30.16,5,1,8,0.01
2013-1-2,60.5,43.4,29.6,32.8,28.8,22.0,91,62,23,30.20,30.03,5,1,7,0.00
2013-1-3,60.9,45.7,31.2,31.6,29.4,26.5,90,58,28,30.22,30.07,8,2,13,0.00
2013-1-4,59.4,47.6,37.4,31.3,29.2,26.9,75,50,32,30.31,30.20,8,2,13,0.00
2013-1-5,62.2,44.5,30.5,31.8,27.9,14.9,89,59,16,30.38,30.26,3,0,8,0.00
2013-1-6,66.6,50.6,35.0,31.5,23.9,16.7,73,40,15,30.27,29.97,6,1,10,0.00
2013-1-7,55.9,44.3,32.2,31.3,28.9,26.0,84,57,34,29.98,29.85,10,3,20,0.00
2013-1-8,61.4,45.8,31.4,31.2,27.9,23.5,87,54,26,30.17,29.96,5,1,8,0.00
2013-1-9,71.9,51.6,33.1,30.5,22.7,12.1,76,40,11,30.25,30.06,7,1,11,0.00
2013-1-10,67.8,55.7,40.9,36.2,23.9,19.0,56,31,18,30.08,29.80,13,3,23,0.00
2013-1-11,47.7,41.1,32.8,35.7,24.2,7.9,90,55,23,30.10,29.90,14,3,20,0.01
2013-1-12,45.5,34.9,26.3,20.6,15.9,7.4,78,49,21,30.21,30.06,7,1,10,0.00
2013-1-13,47.9,34.5,21.0,17.3,13.2,4.4,81,46,17,30.24,30.10,7,1,12,0.00
2013-1-14,44.6,33.0,23.1,17.2,10.5,3.3,71,42,20,30.34,30.16,12,2,20,0.00
2013-1-15,48.0,32.9,19.7,11.3,6.5,-2.1,68,37,13,30.49,30.33,4,1,8,0.00
2013-1-16,58.4,40.5,23.8,18.0,11.4,5.6,61,34,13,30.49,30.29,6,1,9,0.00
2013-1-17,70.2,51.9,31.0,21.3,17.0,11.9,62,31,11,30.31,30.17,7,2,10,0.00
2013-1-18,75.2,58.5,45.4,26.8,19.6,11.0,48,24,9,30.22,30.07,6,2,13,0.00
2013-1-19,68.4,44.9,34.4,26.7,23.8,18.5,67,47,15,30.25,30.15,3,0,13,0.00
2013-1-20,76.3,64.9,49.7,31.0,27.9,25.6,46,26,18,30.16,30.02,7,2,9,0.00
2013-1-21,80.4,58.3,40.5,34.0,31.4,27.6,71,40,18,30.12,29.99,8,2,15,0.00
2013-1-22,81.6,60.1,41.8,36.5,33.3,29.4,70,40,16,30.18,30.05,6,1,11,0.00
2013-1-23,83.3,61.4,42.3,36.0,32.8,29.4,66,39,15,30.21,30.07,4,0,5,0.00
2013-1-24,64.3,59.6,55.1,54.7,44.0,33.0,83,58,38,30.22,30.12,3,0,5,0.05
2013-1-25,79.3,64.1,50.2,51.3,48.1,44.6,87,60,30,30.18,29.95,5,1,6,0.00
2013-1-26,69.7,61.4,55.7,58.2,53.0,47.7,93,76,47,29.98,29.87,9,2,15,0.62
2013-1-27,66.4,58.4,49.8,53.0,49.6,46.0,95,74,48,30.02,29.91,5,1,10,0.00
2013-1-28,57.4,51.1,44.2,49.1,40.6,30.6,84,68,51,30.04,29.91,12,5,21,0.08
2013-1-29,52.6,44.7,37.7,34.8,28.4,18.9,78,56,28,30.18,30.04,11,5,18,0.00
2013-1-30,58.4,46.3,32.1,30.4,25.4,18.9,84,48,22,30.41,30.26,8,2,11,0.00
2013-1-31,60.0,45.7,32.5,37.2,31.1,26.1,84,60,30,30.33,30.15,7,1,9,0.00
2013-2-1,71.9,51.5,33.7,35.8,31.5,22.7,88,54,16,30.27,30.16,6,1,9,0.00
2013-2-2,75.8,55.0,36.8,39.4,32.5,20.9,81,49,13,30.29,30.12,7,1,11,0.00
2013-2-3,72.3,59.1,50.2,39.8,37.1,28.5,65,46,23,30.16,29.95,6,1,9,0.00
2013-2-4,70.5,56.9,44.7,41.4,39.8,37.9,83,56,32,30.04,29.93,6,1,10,0.00
2013-2-5,74.8,57.8,41.8,43.6,41.0,37.6,86,57,27,30.04,29.91,8,2,11,0.00
2013-2-6,70.7,58.2,46.6,43.5,39.6,35.7,79,53,29,30.04,29.90,8,2,13,0.00
2013-2-7,71.7,56.0,41.9,40.4,36.0,27.2,82,51,22,30.12,29.97,4,1,7,0.00
2013-2-8,68.8,57.8,46.0,36.2,27.5,15.2,57,35,13,29.97,29.77,12,3,16,0.00
2013-2-9,53.4,46.5,37.8,37.7,29.4,22.4,89,53,30,30.08,29.80,10,3,15,0.07
2013-2-10,57.9,44.9,31.6,29.7,26.4,20.9,84,53,25,30.11,29.98,7,1,10,0.00
2013-2-11,54.0,39.8,32.0,36.3,30.7,25.3,92,72,36,30.25,30.01,11,2,17,0.15
2013-2-12,52.2,42.2,31.8,35.6,31.5,27.5,95,69,42,30.37,30.24,6,2,11,0.00
2013-2-13,60.6,45.2,30.7,31.4,27.2,16.1,89,55,18,30.28,30.13,6,1,10,0.00
2013-2-14,65.3,49.3,32.9,32.3,28.9,23.1,85,51,23,30.22,30.07,7,2,10,0.00
2013-2-15,58.0,43.9,39.4,35.3,32.9,30.2,78,66,36,30.25,30.17,2,0,4,0.00
2013-2-20,49.7,36.9,33.7,39.0,33.4,31.5,93,88,60,30.02,29.70,11,2,20,0.47
2013-2-21,55.0,44.1,34.0,37.3,34.0,31.1,94,70,42,30.14,30.00,4,1,6,0.09
2013-2-22,54.9,46.4,36.7,38.2,33.8,26.0,92,64,39,30.20,30.05,8,2,12,0.00
2013-2-23,64.5,48.7,33.0,33.4,29.4,20.4,88,53,19,30.20,29.88,8,1,10,0.00
2013-2-24,50.9,45.0,37.9,33.1,21.0,6.7,80,43,17,30.14,29.84,16,5,27,0.00
2013-2-25,58.4,44.6,30.0,26.2,20.3,16.2,70,41,21,30.28,30.10,5,1,26,0.00
2013-2-26,62.3,47.6,30.1,26.6,22.0,15.9,79,42,17,30.13,30.01,11,3,26,0.00
2013-2-27,64.3,49.0,32.6,26.0,16.6,3.4,71,34,9,30.25,30.13,9,3,26,0.00
2013-2-28,67.2,50.6,31.7,23.1,17.0,8.2,66,31,11,30.35,30.24,9,2,26,0.00
2013-3-1,75.0,54.9,35.7,31.3,22.5,10.9,60,33,10,30.38,30.21,4,1,26,0.00
2013-3-2,83.4,61.8,39.0,31.4,26.0,12.2,67,32,7,30.32,30.09,5,1,26,0.00
2013-3-3,80.7,64.5,45.0,31.6,25.4,16.3,57,27,9,30.11,29.90,8,2,26,0.00
2013-3-4,72.7,64.6,52.6,35.3,29.9,20.9,51,28,15,30.05,29.84,14,4,21,0.00
2013-3-5,79.6,63.2,44.8,35.5,30.7,22.7,63,34,13,30.10,29.95,6,2,17,0.00
2013-3-6,80.0,66.6,52.9,37.5,32.3,24.4,51,31,15,30.01,29.84,8,2,11,0.00
2013-3-7,79.7,65.3,50.1,34.7,28.2,15.0,52,29,9,29.95,29.84,10,2,16,0.00
2013-3-8,66.2,62.6,59.0,43.1,37.7,30.9,50,40,27,29.88,29.79,13,4,24,0.00
2013-3-9,52.3,48.2,43.9,39.2,37.5,34.9,82,67,56,30.08,30.01,8,4,10,0.02
2013-3-10,65.4,59.5,51.2,38.3,34.5,27.5,58,40,25,30.17,30.08,12,6,18,0.00
2013-3-11,71.9,56.5,39.2,36.8,33.0,26.1,78,46,19,30.20,30.02,8,2,14,0.00
2013-3-12,81.3,62.3,41.9,40.9,33.5,23.3,69,39,12,30.11,29.98,7,2,12,0.00
2013-3-13,88.8,68.4,46.6,38.5,30.7,12.7,65,32,6,30.13,29.97,7,2,14,0.00
2013-3-14,92.8,71.7,48.1,36.5,25.0,-0.6,57,26,3,30.10,29.94,7,2,12,0.00
2013-3-15,92.8,73.1,52.9,34.4,25.2,-9.1,40,21,2,30.00,29.83,14,3,25,0.00
2013-3-16,89.5,72.3,52.5,33.4,21.0,-2.2,43,19,3,29.87,29.67,10,3,19,0.00
2013-3-17,83.4,68.1,55.0,29.4,22.5,15.0,30,19,8,29.88,29.75,13,3,20,0.00
2013-3-18,82.6,68.5,53.7,35.1,27.0,17.5,41,23,9,29.96,29.85,9,2,20,0.00
2013-3-19,79.4,66.9,53.5,36.4,30.8,27.3,44,27,16,30.01,29.89,9,2,20,0.00
2013-3-20,82.1,68.0,51.5,34.8,30.6,23.3,51,28,12,30.02,29.83,7,2,20,0.00
2013-3-21,77.6,67.6,55.0,36.7,33.1,30.6,44,29,19,29.83,29.68,7,2,20,0.00
2013-3-22,80.3,69.8,54.8,37.8,33.1,25.4,50,27,15,29.76,29.63,11,3,20,0.00
2013-3-23,73.8,64.1,52.9,37.7,21.3,1.7,44,23,6,29.96,29.76,12,4,22,0.00
2013-3-24,75.1,61.2,44.2,20.6,7.8,-21.3,38,16,2,30.01,29.86,10,3,20,0.00
2013-3-25,80.7,64.5,44.5,23.1,15.9,10.0,35,17,7,30.01,29.87,7,2,10,0.00
2013-3-26,86.9,70.4,53.2,25.1,15.4,-4.6,31,15,3,29.95,29.77,7,2,13,0.00
2013-3-27,85.2,71.4,55.0,24.4,19.9,11.7,30,16,7,29.95,29.83,8,2,14,0.00
2013-3-28,84.8,71.5,53.3,33.1,23.5,13.3,36,18,8,30.01,29.90,9,2,16,0.00
2013-3-29,85.5,71.9,55.7,33.6,23.5,5.7,38,19,5,30.05,29.92,8,2,13,0.00
2013-3-30,82.6,70.5,57.7,31.1,24.0,11.4,30,19,7,30.02,29.88,9,2,17,0.00
2013-3-31,85.4,69.9,50.7,32.3,27.5,20.0,47,23,9,30.01,29.84,8,2,10,0.00
2013-4-1,82.7,69.3,52.4,37.8,30.8,23.3,48,26,15,29.98,29.82,9,3,14,0.00
2013-4-2,76.9,65.8,49.8,28.9,23.5,13.5,43,22,9,29.93,29.83,10,3,16,0.00
2013-4-3,81.8,67.5,49.7,31.0,26.4,16.9,42,23,9,30.02,29.91,7,2,11,0.00
2013-4-4,90.0,72.2,52.1,32.1,23.3,-2.2,44,21,3,30.05,29.86,7,2,10,0.00
2013-4-5,87.6,73.9,57.6,34.0,28.7,22.3,38,20,10,29.92,29.78,9,2,14,0.00
2013-4-6,85.6,72.3,57.3,37.4,32.3,24.8,41,25,11,29.93,29.76,10,2,13,0.00
2013-4-7,86.1,72.7,56.4,39.5,32.7,19.4,52,26,10,29.85,29.68,9,2,14,0.00
2013-4-8,82.5,69.8,47.8,45.1,35.2,23.7,89,31,12,29.70,29.33,18,7,27,0.15
2013-4-9,66.5,57.5,47.4,46.0,33.3,22.3,91,46,20,29.89,29.57,11,4,19,0.05
2013-4-10,67.2,58.0,44.4,35.4,30.7,22.7,67,38,19,30.00,29.89,10,3,13,0.00
2013-4-11,78.3,63.4,46.0,37.2,30.4,20.9,63,34,12,30.00,29.75,8,2,13,0.00
2013-4-12,79.8,66.1,51.7,36.0,29.4,22.3,50,28,13,29.80,29.71,9,2,13,0.00
2013-4-13,84.6,70.4,49.1,35.1,27.1,16.3,56,24,8,29.85,29.68,8,3,15,0.00
2013-4-14,84.5,72.2,56.0,38.9,31.7,20.7,44,25,10,29.76,29.62,10,4,18,0.00
2013-4-15,86.7,74.6,60.4,39.5,32.4,22.4,44,24,10,29.75,29.63,11,5,20,0.00
2013-4-16,84.3,73.2,63.1,40.7,32.2,22.7,40,24,11,29.77,29.64,12,5,21,0.00
2013-4-17,67.7,61.4,52.5,41.9,25.0,9.7,52,27,12,30.00,29.73,13,5,19,0.00
2013-4-18,70.4,58.7,43.0,20.9,13.6,4.2,40,19,8,30.13,30.00,10,4,18,0.00
2013-4-19,80.3,63.4,40.9,23.5,5.7,-30.0,48,17,1,30.17,29.93,7,2,10,0.00
2013-4-20,83.4,66.6,44.6,28.5,15.0,3.2,39,16,6,29.97,29.85,10,2,15,0.00
2013-4-21,89.0,72.3,50.7,29.5,18.4,3.7,35,16,4,30.02,29.86,6,2,13,0.00
2013-4-22,91.5,75.3,54.7,30.6,17.1,-9.1,38,15,2,29.93,29.72,8,2,13,0.00
2013-4-23,88.6,75.3,58.9,31.0,20.6,7.3,26,15,5,29.83,29.72,10,3,19,0.00
2013-4-24,89.8,77.2,62.0,31.4,22.7,9.0,28,15,5,29.87,29.74,8,3,16,0.00
2013-4-25,83.3,74.4,61.9,35.2,26.7,-0.1,31,18,5,29.97,29.79,12,4,20,0.00
2013-4-26,85.8,71.1,50.6,32.7,27.5,14.0,47,22,7,30.08,29.96,7,2,11,0.00
2013-4-27,90.1,74.8,54.9,33.3,24.9,3.2,42,19,4,30.03,29.83,8,2,11,0.00
2013-4-28,94.6,77.7,55.7,32.6,17.1,-0.6,39,15,3,29.86,29.68,8,2,13,0.00
2013-4-29,96.7,79.8,57.5,26.5,14.4,-19.5,29,12,2,29.78,29.59,8,2,15,0.00
2013-4-30,95.1,80.6,60.5,30.6,18.4,0.7,31,13,3,29.74,29.61,9,3,21,0.00
2013-5-1,90.6,77.3,61.5,34.7,21.4,-1.4,30,15,4,29.92,29.73,9,2,12,0.00
2013-5-2,91.8,77.6,58.1,34.9,17.8,3.3,38,13,4,30.04,29.90,11,4,20,0.00
2013-5-3,88.0,75.0,63.5,25.2,16.6,3.1,20,12,4,30.00,29.73,13,5,18,0.00
2013-5-4,91.9,78.8,61.7,27.7,19.0,4.4,25,12,4,29.76,29.62,8,3,19,0.00
2013-5-5,89.4,78.8,66.5,45.6,28.0,16.0,47,16,8,29.87,29.68,10,4,18,0.00
2013-5-6,84.4,72.5,60.3,52.6,41.6,32.2,74,37,16,29.92,29.81,9,3,18,0.00
2013-5-7,83.7,71.6,59.0,44.9,36.5,20.4,50,31,10,29.94,29.80,10,4,15,0.00
2013-5-8,81.0,70.1,57.5,44.4,39.2,31.9,54,34,18,29.99,29.86,8,3,15,0.00
2013-5-9,83.0,72.6,61.1,45.3,35.1,19.0,55,29,10,29.95,29.82,8,2,13,0.00
2013-5-10,86.9,72.8,56.8,41.0,36.1,24.4,52,29,11,30.00,29.86,10,2,16,0.00
2013-5-11,87.5,76.1,58.9,40.3,36.2,27.2,49,25,13,30.03,29.93,11,4,20,0.00
2013-5-12,91.1,80.5,68.1,40.1,33.2,24.3,31,19,10,30.07,29.87,11,4,17,0.00
2013-5-13,94.9,83.3,64.6,37.5,26.4,13.5,33,14,6,29.99,29.81,9,3,15,0.00
2013-5-14,96.3,85.0,71.2,39.0,30.1,17.6,31,15,7,29.90,29.73,8,3,13,0.00
2013-5-15,97.0,84.3,66.5,39.5,32.9,24.0,36,18,8,29.91,29.73,10,4,17,0.00
2013-5-16,97.1,83.5,66.5,39.6,26.6,8.7,32,15,4,29.85,29.67,9,2,14,0.00
2013-5-17,94.0,81.3,65.4,37.6,27.3,14.2,31,16,6,29.82,29.70,10,3,16,0.00
2013-5-18,91.0,79.2,65.3,42.5,28.7,16.0,35,18,7,29.86,29.74,8,3,16,0.00
2013-5-19,90.8,78.5,62.3,46.4,36.5,23.6,50,25,10,29.86,29.70,9,3,14,0.00
2013-5-20,90.3,79.0,62.3,40.7,30.4,17.4,42,20,8,29.83,29.72,13,4,21,0.00
2013-5-21,95.0,80.1,59.4,29.8,17.2,-7.4,31,12,2,29.86,29.68,7,2,14,0.00
2013-5-22,98.8,83.5,63.7,31.0,21.1,5.1,23,12,4,29.75,29.58,9,3,14,0.00
2013-5-23,97.4,84.3,66.4,36.6,26.9,1.5,30,14,3,29.77,29.65,9,3,16,0.00
2013-5-24,97.6,83.8,66.0,44.6,25.2,-6.3,34,16,2,29.84,29.72,9,3,16,0.00
2013-5-25,96.9,83.4,65.6,38.6,21.7,-20.0,35,15,1,29.86,29.75,9,2,14,0.00
2013-5-26,95.2,81.0,61.9,32.5,12.1,-23.2,30,12,1,29.89,29.77,9,3,13,0.00
2013-5-27,97.1,80.5,60.7,31.4,10.8,-99.9,28,12,1,29.83,29.64,8,2,12,0.00
2013-5-28,94.5,80.5,62.4,34.3,23.8,6.5,28,15,4,29.69,29.53,9,3,14,0.00
2013-5-29,93.7,81.2,65.1,50.9,35.7,25.7,37,21,9,29.69,29.57,8,3,14,0.00
2013-5-30,96.7,84.8,70.4,56.6,43.9,31.0,53,28,11,29.76,29.64,9,3,14,0.00
2013-5-31,96.5,85.7,72.1,58.8,48.7,37.1,60,32,15,29.79,29.66,9,3,17,0.00
2013-6-1,105.0,89.0,67.0,44.8,34.7,7.7,43,18,4,29.76,29.58,6,2,11,0.00
2013-6-2,105.4,91.1,71.9,44.1,35.8,15.1,36,17,5,29.69,29.55,9,2,16,0.00
2013-6-3,102.5,89.3,71.0,43.2,27.0,-3.1,33,15,2,29.74,29.62,9,3,17,0.00
2013-6-15,101.0,94.4,82.3,60.1,52.1,43.3,40,25,15,29.77,29.65,8,3,19,0.00
2013-6-16,104.7,90.9,74.3,59.3,44.2,23.6,58,25,7,29.83,29.68,8,3,19,0.00
2013-6-17,103.8,89.8,70.3,38.7,28.1,14.3,30,13,5,29.84,29.66,9,2,19,0.00
2013-6-18,106.6,89.1,69.5,38.0,-8.6,-99.9,26,10,1,29.78,29.62,9,2,19,0.00
2013-6-19,105.1,89.7,67.6,33.9,15.1,-99.9,21,9,1,29.70,29.57,9,3,19,0.00
2013-6-20,104.1,89.3,69.7,37.5,12.3,-99.9,28,11,1,29.74,29.62,9,2,19,0.00
2013-6-21,103.5,90.1,72.1,41.5,24.4,-15.7,30,13,1,29.77,29.64,9,3,19,0.00
2013-6-22,103.5,89.2,71.0,38.6,23.0,-16.0,28,12,1,29.78,29.61,8,2,19,0.00
2013-6-23,101.9,89.0,71.1,36.8,25.0,-5.1,26,13,2,29.74,29.58,10,3,19,0.00
2013-6-24,101.4,87.9,70.8,40.2,28.1,-4.3,27,14,2,29.77,29.65,11,3,21,0.00
2013-6-25,102.8,88.1,70.3,43.0,22.3,-16.9,32,13,1,29.85,29.73,6,2,21,0.00
2013-6-26,101.6,88.0,68.5,36.1,23.5,5.3,27,12,3,29.93,29.79,8,2,21,0.00
2013-6-27,103.0,89.8,71.6,45.2,34.3,22.5,30,15,7,29.96,29.78,13,4,21,0.00
2013-6-28,108.4,93.3,72.8,45.1,36.4,26.8,32,16,6,29.84,29.66,9,2,21,0.00
2013-6-29,110.3,97.1,80.0,47.6,39.6,30.9,27,15,7,29.75,29.58,14,2,19,0.00
2013-6-30,109.0,95.1,80.4,62.1,50.6,39.0,52,25,10,29.83,29.53,13,4,22,0.03
2013-7-1,106.6,90.0,79.0,66.7,57.7,48.1,54,37,15,29.78,29.64,10,2,13,0.16
2013-7-2,101.0,89.4,73.9,62.6,56.9,52.0,67,36,21,29.95,29.71,15,5,25,0.01
2013-7-3,104.1,92.6,78.5,56.5,51.9,44.6,46,27,16,29.80,29.56,9,4,15,0.00
2013-7-4,104.4,94.2,82.9,59.7,54.3,47.4,44,28,15,29.73,29.55,10,4,18,0.00
2013-7-5,98.8,91.3,86.4,62.5,59.6,55.3,42,35,28,29.72,29.63,10,2,17,0.00
2013-7-7,106.7,95.9,87.3,62.0,56.6,51.6,40,28,17,29.70,29.57,10,4,16,0.01
2013-7-8,106.6,94.8,85.2,62.0,57.7,51.1,45,30,19,29.78,29.66,9,2,18,0.00
2013-7-9,98.0,89.8,78.3,69.5,64.4,59.3,74,45,30,29.90,29.73,11,5,20,0.02
2013-7-10,97.3,88.2,80.5,71.8,66.0,63.1,75,49,33,29.89,29.74,10,2,20,0.01
2013-7-11,93.8,82.8,72.5,72.4,67.3,64.7,89,61,40,29.89,29.76,12,2,18,0.04
2013-7-12,92.2,83.4,77.1,68.9,65.8,59.8,72,57,34,29.88,29.73,9,2,16,0.12
2013-7-13,98.6,88.5,76.9,67.6,62.9,56.8,72,45,27,29.87,29.70,10,3,18,0.00
2013-7-14,100.7,91.6,82.6,63.9,60.9,56.8,52,37,24,29.81,29.64,8,3,16,0.00
2013-7-15,101.9,88.3,77.4,71.8,63.2,56.2,82,46,24,29.74,29.57,11,3,18,0.16
2013-7-16,90.5,81.6,74.6,69.5,65.7,63.2,82,60,42,29.93,29.73,8,4,14,0.09
2013-7-17,98.7,87.2,75.3,68.4,60.6,53.4,77,45,23,29.93,29.78,10,3,15,0.00
2013-7-18,94.2,86.0,80.8,58.2,56.8,55.3,45,38,28,29.87,29.77,10,5,14,0.00
2013-7-19,95.1,88.0,81.2,68.5,63.0,58.8,61,44,31,29.78,29.68,7,2,12,0.05
2013-7-20,92.2,80.0,72.1,70.2,67.7,64.4,90,68,43,29.81,29.66,10,3,14,0.39
2013-7-21,92.2,82.6,74.9,70.0,67.2,62.4,84,62,39,29.85,29.76,11,3,18,0.00
2013-7-22,93.3,84.2,73.9,69.0,65.0,61.1,80,55,36,29.89,29.78,11,3,19,0.00
2013-7-23,96.0,86.9,74.8,64.5,61.6,59.0,67,44,31,29.90,29.73,9,3,18,0.00
2013-7-24,93.3,86.2,80.7,67.3,63.8,61.7,56,48,38,29.83,29.72,5,1,18,0.00
2013-7-25,92.7,85.2,79.6,70.9,67.8,65.3,73,57,43,29.91,29.85,5,1,9,0.00
2013-7-26,97.2,81.5,74.5,71.2,68.7,62.9,82,67,34,29.99,29.90,11,1,17,0.15
2013-7-27,96.4,84.4,73.7,70.5,67.2,63.3,85,59,35,29.93,29.75,8,1,16,0.00
2013-7-28,101.6,89.1,75.0,67.4,57.9,46.7,72,40,19,29.79,29.65,7,2,11,0.00
2013-7-29,101.0,89.0,73.5,55.5,50.5,45.4,51,29,16,29.89,29.76,6,2,11,0.00
2013-7-30,102.4,91.2,75.8,59.4,53.8,49.9,56,30,18,29.98,29.83,9,3,15,0.00
2013-7-31,101.9,91.4,81.4,62.0,56.4,50.8,50,32,19,29.92,29.78,7,2,11,0.00
2013-8-1,90.5,85.8,83.0,63.2,60.4,55.6,51,43,31,29.85,29.79,4,2,11,0.00
2013-8-2,86.0,82.6,79.5,68.7,63.0,59.2,61,52,46,29.85,29.77,3,1,5,0.33
2013-8-3,101.3,88.0,73.5,64.0,59.7,53.7,71,42,23,29.91,29.76,7,2,15,0.00
2013-8-4,99.3,88.3,81.1,63.1,59.5,51.9,51,39,22,29.89,29.76,5,1,9,0.00
2013-8-5,95.0,83.0,70.5,67.3,60.7,54.2,85,50,26,29.93,29.76,8,3,17,0.08
2013-8-6,84.8,76.5,69.7,69.0,64.7,59.5,91,69,46,29.95,29.86,12,3,18,0.04
2013-8-7,94.6,82.4,69.7,66.3,59.5,51.1,83,51,24,29.96,29.81,8,2,18,0.00
2013-8-8,101.1,86.9,70.9,58.4,48.2,30.1,61,31,10,29.87,29.72,6,1,11,0.00
2013-8-9,103.1,88.1,70.0,50.7,44.9,38.4,48,25,13,29.83,29.70,8,2,11,0.00
2013-8-10,101.7,89.1,75.1,47.7,40.9,34.4,36,20,12,29.90,29.74,6,1,11,0.00
2013-8-11,102.1,87.9,72.9,60.9,53.9,37.4,54,32,21,29.86,29.70,10,2,15,0.00
2013-8-12,103.7,90.8,73.8,62.6,52.3,32.4,62,32,11,29.81,29.68,6,2,11,0.00
2013-8-13,102.6,88.4,73.0,49.5,39.9,32.0,38,21,9,29.88,29.72,9,2,12,0.00
2013-8-14,103.5,94.9,84.2,60.8,53.0,45.0,45,27,15,29.83,29.68,10,6,17,0.00
2013-8-15,104.8,90.9,77.3,61.7,57.4,51.8,57,35,18,29.85,29.70,10,2,16,0.00
2013-8-17,107.2,96.9,87.1,76.6,55.1,48.7,64,27,15,29.78,29.65,14,4,18,0.14
2013-8-18,107.0,90.5,80.6,60.3,55.3,46.8,50,32,14,29.86,29.74,8,2,15,0.00
2013-8-19,103.1,91.1,80.1,61.2,55.1,45.5,51,32,16,29.85,29.69,6,1,10,0.00
2013-8-20,102.8,88.1,81.3,65.6,58.7,50.3,54,38,20,29.86,29.68,16,3,40,0.08
2013-8-21,96.1,86.3,78.3,64.1,59.1,54.7,57,41,26,29.86,29.75,9,2,15,0.00
2013-8-22,102.2,89.4,78.5,62.0,58.4,52.7,54,38,20,29.86,29.67,8,2,13,0.00
2013-8-23,95.1,86.1,78.4,63.8,59.7,55.8,61,42,29,29.83,29.65,9,4,17,0.00
2013-8-24,90.8,82.2,74.5,66.9,61.6,56.9,76,52,33,29.88,29.74,7,3,17,0.00
2013-8-25,92.5,79.7,75.3,72.9,68.0,63.4,92,69,39,29.91,29.80,8,1,17,0.11
2013-8-26,100.9,82.9,72.9,73.0,68.1,57.5,93,66,25,29.90,29.72,9,2,15,0.00
2013-8-28,98.2,85.4,79.8,67.9,64.8,58.0,64,52,27,29.87,29.69,7,2,10,0.03
2013-8-29,88.5,80.3,75.7,69.8,67.6,64.1,81,66,48,29.99,29.86,7,1,11,0.01
2013-8-30,92.2,82.1,75.2,71.0,68.1,62.8,81,64,38,29.98,29.85,5,1,8,0.00
2013-8-31,95.3,85.4,73.1,69.1,65.1,59.0,84,53,32,29.91,29.75,11,3,17,0.00
2013-9-1,98.3,88.0,74.3,66.5,62.5,56.3,71,45,27,29.83,29.68,8,2,14,0.00
2013-9-2,98.3,86.2,77.2,64.4,61.5,54.4,61,45,24,29.89,29.68,9,2,12,0.00
2013-9-3,102.2,85.9,74.7,63.5,60.8,54.9,64,46,23,29.82,29.74,9,1,11,0.00
2013-9-8,85.2,78.2,72.5,69.5,65.8,62.3,88,67,47,29.81,29.70,8,2,12,0.06
2013-9-9,85.2,76.1,70.0,68.8,66.8,64.6,91,74,51,29.77,29.67,8,1,17,0.23
2013-9-10,89.3,77.5,65.9,66.0,61.8,56.4,92,62,34,29.86,29.75,8,2,13,0.00
2013-9-11,90.1,79.7,66.7,64.6,59.5,53.7,88,54,31,29.92,29.79,10,3,17,0.00
2013-9-12,94.9,82.2,67.4,63.5,58.2,50.3,79,48,26,29.83,29.66,10,2,19,0.00
2013-9-13,98.4,86.3,72.5,66.3,59.3,40.2,74,44,14,29.71,29.53,5,2,10,0.00
2013-9-14,99.3,88.2,76.0,64.1,58.2,48.1,63,39,19,29.65,29.52,6,2,10,0.00
2013-9-15,100.6,88.0,73.6,61.5,56.5,48.2,63,37,18,29.70,29.60,4,1,10,0.00
2013-9-16,101.1,90.9,82.2,60.5,57.6,47.6,45,34,17,29.74,29.61,9,4,13,0.00
2013-9-17,101.2,91.5,81.5,60.6,56.0,46.2,47,32,16,29.70,29.53,7,3,11,0.00
2013-9-18,100.5,88.7,75.1,59.8,47.1,37.9,55,26,12,29.68,29.54,8,2,13,0.00
2013-9-19,99.3,86.4,71.6,53.1,46.9,39.2,50,27,17,29.70,29.58,8,2,12,0.00
2013-9-20,100.1,84.8,69.5,57.5,49.3,41.8,44,31,16,29.76,29.64,7,2,12,0.00
2013-9-21,97.6,86.9,75.0,57.4,54.5,50.5,54,35,22,29.76,29.57,6,2,14,0.00
2013-9-22,92.9,83.5,73.4,64.6,53.8,34.8,60,38,22,29.68,29.52,12,4,20,0.00
2013-9-23,91.2,77.0,60.2,44.7,37.7,28.5,50,27,11,29.85,29.68,6,2,10,0.00
2013-9-24,97.7,80.3,61.2,42.7,37.6,31.8,47,25,11,29.91,29.72,5,1,8,0.00
2013-9-25,95.6,80.3,63.9,39.3,29.2,20.2,36,18,7,29.78,29.59,10,2,16,0.00
2013-9-26,93.3,79.8,64.2,57.9,38.9,24.2,54,25,15,29.69,29.56,10,4,19,0.00
2013-9-27,79.5,73.1,63.7,59.9,43.2,23.5,63,37,16,29.90,29.67,8,4,13,0.00
2013-9-28,88.7,72.7,54.2,42.0,35.7,28.8,46,27,17,30.03,29.90,7,1,12,0.00
2013-9-29,90.7,75.9,59.1,44.4,39.6,33.8,54,29,15,30.03,29.88,7,2,10,0.00
2013-9-30,90.5,75.2,57.8,41.3,34.7,22.8,50,27,9,29.94,29.79,7,2,13,0.00
2013-10-1,92.2,76.0,56.7,41.5,34.7,29.9,44,25,12,29.93,29.79,6,1,11,0.00
2013-10-2,69.7,65.2,60.4,42.5,41.5,40.4,50,42,36,29.89,29.85,1,0,7,0.00
2013-10-7,94.8,82.3,59.7,33.5,28.5,22.7,29,15,9,29.96,29.80,8,3,15,0.00
2013-10-8,89.9,75.4,59.8,38.4,32.0,25.8,38,22,12,29.85,29.70,8,2,12,0.00
2013-10-9,87.8,75.6,61.9,45.4,37.4,30.3,35,26,15,29.74,29.60,11,4,26,0.00
2013-10-10,71.9,63.9,55.4,51.8,46.4,40.1,74,54,32,29.93,29.67,10,4,17,0.00
2013-10-11,76.4,62.9,48.8,44.4,40.9,36.0,77,48,26,30.01,29.89,7,2,10,0.00
2013-10-12,86.5,68.1,48.9,40.6,37.3,32.6,65,36,15,29.97,29.81,5,1,9,0.00
2013-10-13,88.1,72.8,55.3,46.9,39.5,34.6,56,32,16,29.95,29.81,9,3,16,0.00
2013-10-14,81.6,69.1,53.5,46.7,40.4,34.6,71,38,20,29.99,29.86,7,2,12,0.00
2013-10-15,61.1,56.2,53.7,39.2,37.7,36.8,56,50,43,29.92,29.89,2,0,3,0.00
2013-10-22,90.0,77.6,46.3,28.3,19.1,3.9,47,14,4,30.04,29.87,6,2,11,0.00
2013-10-23,91.7,76.4,63.8,32.2,28.4,23.6,28,18,9,29.89,29.75,5,2,9,0.00
2013-10-24,91.5,73.4,53.1,35.7,29.2,22.2,43,23,10,29.91,29.79,9,2,14,0.00
2013-10-26,75.0,69.6,64.8,34.7,33.4,30.9,31,26,22,29.98,29.96,5,1,7,0.00
2013-10-27,90.5,74.1,57.5,38.2,30.0,18.9,42,22,8,29.97,29.71,7,2,11,0.00
2013-10-28,82.2,69.5,56.5,36.8,33.1,22.4,45,28,12,29.87,29.76,10,2,19,0.00
2013-10-29,81.3,69.8,56.5,41.2,35.8,29.9,52,30,16,29.89,29.76,12,4,20,0.00
2013-10-30,67.3,57.8,47.5,39.9,35.8,28.6,71,46,28,30.05,29.86,11,3,19,0.00
2013-10-31,73.3,57.1,40.1,33.3,28.2,10.8,67,38,9,30.15,30.01,7,2,11,0.00
2013-11-1,79.9,59.4,39.8,30.8,26.5,21.5,57,32,12,30.18,30.01,5,1,9,0.00
2013-11-2,87.3,68.8,46.7,54.2,23.2,12.0,81,24,7,30.06,29.82,9,2,15,0.10
2013-11-3,81.4,68.0,58.6,53.3,47.7,38.7,80,52,25,29.92,29.69,7,2,12,0.00
2013-11-4,79.9,66.9,54.4,52.9,45.9,42.5,67,49,28,29.81,29.66,8,3,13,0.00
2013-11-5,70.4,61.8,52.8,47.4,44.2,39.9,75,54,34,30.11,29.81,8,2,13,0.00
2013-11-6,75.3,61.1,44.3,43.3,29.4,14.2,79,36,13,30.26,30.10,7,2,13,0.00
2013-11-7,82.0,70.0,57.3,29.7,20.5,2.9,27,16,9,30.18,29.98,11,4,20,0.00
2013-11-8,81.6,62.9,53.2,36.4,33.1,30.3,46,34,19,30.05,29.98,4,1,11,0.00
2013-11-22,63.5,52.4,47.6,57.3,49.4,45.4,93,90,72,29.99,29.81,9,5,16,0.87
2013-11-23,55.2,50.0,46.9,49.0,46.3,44.3,95,88,72,30.11,29.97,7,2,12,0.94
2013-11-24,59.9,50.9,42.9,46.3,42.5,38.8,93,74,51,30.18,30.08,8,2,11,0.00
2013-11-25,58.9,48.1,38.3,42.8,39.9,35.9,92,75,52,30.27,30.16,6,1,9,0.01
2013-11-26,66.5,54.4,39.2,40.6,34.2,27.4,92,52,27,30.31,30.16,9,4,15,0.01
2013-11-27,64.3,57.4,51.4,28.7,26.4,23.9,41,31,24,30.18,30.00,8,4,16,0.00
2013-11-28,73.1,58.4,48.6,42.3,32.9,26.9,70,40,24,30.10,29.98,6,2,13,0.00
2013-11-29,74.3,53.9,42.6,44.3,40.4,37.6,85,64,27,30.19,30.09,3,0,7,0.00
2013-11-30,69.8,59.3,46.3,47.0,45.0,42.6,88,61,41,30.18,30.05,5,1,7,0.00
2013-12-1,69.3,57.7,48.8,48.7,46.5,44.3,88,69,41,30.21,30.10,6,1,10,0.00
2013-12-2,70.6,55.3,42.3,45.3,41.5,34.3,93,65,27,30.16,29.94,5,1,9,0.00
2013-12-3,73.7,58.7,44.3,43.4,36.4,20.1,78,48,14,29.95,29.73,5,1,9,0.00
2013-12-4,68.6,59.0,45.9,47.6,42.5,35.3,90,57,30,29.91,29.74,10,4,17,0.03
2013-12-5,50.7,46.0,37.8,44.5,36.0,26.6,92,70,47,30.15,29.87,7,2,10,0.13
2013-12-6,53.6,41.7,30.8,32.7,27.1,20.7,92,60,29,30.26,30.15,5,1,8,0.00
2013-12-7,58.7,44.4,30.1,32.0,27.9,21.3,90,57,24,30.17,30.03,7,1,9,0.01
2013-12-8,57.7,49.2,42.8,41.6,37.4,30.3,76,64,49,30.16,30.04,6,1,11,0.00
2013-12-9,50.5,42.8,33.5,31.0,22.6,18.6,74,46,29,30.35,30.12,6,2,11,0.00
2013-12-10,62.2,44.4,30.4,30.0,25.1,19.3,84,52,19,30.35,30.16,5,1,8,0.00
2013-12-11,73.9,52.5,35.5,42.7,33.9,29.6,81,53,28,30.25,30.13,7,1,10,0.00
2013-12-12,72.6,57.0,44.1,43.5,37.2,32.8,72,49,34,30.18,30.03,10,2,16,0.00
2013-12-13,62.4,49.8,38.0,35.1,33.6,30.1,82,56,33,30.21,30.10,5,1,9,0.00
2013-12-14,63.7,48.3,35.4,35.7,31.4,26.3,85,56,25,30.34,30.21,7,1,9,0.00
2013-12-15,66.3,49.7,34.1,33.0,29.7,25.1,80,50,22,30.35,30.20,7,1,11,0.00
2013-12-16,78.3,54.7,36.6,35.4,31.3,23.0,80,48,13,30.26,30.14,4,1,10,0.00
2013-12-17,83.1,57.3,39.3,37.8,33.2,24.1,76,47,12,30.25,30.07,2,0,7,0.00
2013-12-18,79.4,61.1,46.7,37.5,31.8,23.9,58,36,13,30.10,29.84,4,0,7,0.00
2013-12-19,70.7,58.7,46.2,43.1,30.9,24.6,70,37,18,29.85,29.67,8,2,15,0.00
2013-12-20,55.0,48.8,44.6,44.4,41.0,35.6,92,75,53,29.87,29.63,8,2,13,0.38
2013-12-21,55.5,48.4,43.1,42.6,39.6,34.1,90,73,46,30.10,29.86,9,2,16,0.01
2013-12-22,59.0,47.4,37.8,42.8,37.8,31.8,93,72,38,30.33,30.10,4,1,7,0.00
2013-12-23,63.4,47.2,33.7,39.3,35.5,31.6,94,68,33,30.40,30.29,6,1,9,0.01
2013-12-24,67.5,50.1,35.5,35.9,31.4,25.9,84,54,21,30.29,30.15,6,1,10,0.00
2013-12-25,66.0,51.3,34.4,35.8,31.6,23.4,89,53,25,30.31,30.18,8,2,16,0.00
2013-12-26,66.8,56.0,41.3,29.8,25.0,21.8,63,32,20,30.25,30.10,10,4,14,0.00
2013-12-27,67.8,53.1,35.7,30.5,23.8,17.3,75,38,16,30.25,30.13,12,3,19,0.00
2013-12-28,66.4,54.8,45.2,35.4,28.3,19.6,58,37,20,30.17,29.95,6,2,9,0.00
2013-12-29,63.8,49.7,37.7,34.7,32.6,30.6,79,54,29,30.17,29.97,8,2,12,0.00
2013-12-30,66.1,49.4,35.0,33.2,30.7,25.8,84,53,23,30.32,30.17,7,1,10,0.00
2013-12-31,73.9,52.2,33.8,31.7,27.6,19.4,81,46,13,30.29,30.11,5,1,10,0.00
2014-1-1,69.4,51.5,36.4,33.9,29.6,25.1,72,47,20,30.20,30.08,6,1,10,0.00
2014-1-2,75.7,55.8,36.4,33.4,28.5,22.6,78,42,14,30.20,30.05,7,1,10,0.00